.
WxDataArchive / Data Records for 2015-03-16
2015-03-15 March 2015 2015-03-17

Data Records for Monday, 16 March 2015

Time	Temp	Chill	HIndex	Humid	Dewpt	 Wind 	HiWind	WindDir	Rain 	Barom
-----	----	-----	------	-----	-----	------	------	-------	-----	-----
00:00	51.3	51.3	51.3	62	38.7	0	2	270	0.00	30.039 
00:05	51.4	51.4	51.4	62	38.8	1	2	270	0.00	30.039 
00:10	51.4	51.4	51.4	62	38.8	0	2	270	0.00	30.039 
00:15	51.4	51.4	51.4	62	38.8	1	4	248	0.00	30.026 
00:20	51.4	51.4	51.4	62	38.8	1	3	248	0.00	30.026 
00:25	51.4	51.4	51.4	63	39.2	0	2	248	0.00	30.026 
00:30	51.4	51.4	51.4	63	39.2	1	4	248	0.00	30.027 
00:35	51.4	51.4	51.4	63	39.2	0	4	248	0.00	30.027 
00:40	51.4	51.4	51.4	63	39.2	1	3	248	0.00	30.027 
00:45	51.6	51.6	51.6	63	39.4	0	2	248	0.00	30.022 
00:50	51.7	51.7	51.7	63	39.5	0	3	248	0.00	30.022 
00:55	51.7	51.7	51.7	62	39.1	1	3	248	0.00	30.022 
01:00	52.0	52.0	52.0	62	39.4	1	3	248	0.00	30.017 
01:05	52.0	52.0	52.0	62	39.4	1	4	248	0.00	30.017 
01:10	52.2	52.2	52.2	62	39.6	1	3	248	0.00	30.017 
01:15	52.2	52.2	52.2	62	39.6	1	3	248	0.00	30.003 
01:20	52.2	52.2	52.2	62	39.6	1	2	248	0.00	30.003 
01:25	52.3	52.3	52.3	62	39.7	1	6	248	0.00	30.003 
01:30	52.3	52.3	52.3	62	39.7	1	6	270	0.00	30.003 
01:35	52.5	52.5	52.5	62	39.9	1	3	270	0.00	30.003 
01:40	52.3	52.3	52.3	62	39.7	1	5	270	0.00	30.003 
01:45	52.2	52.2	52.2	62	39.6	1	4	270	0.00	29.996 
01:50	52.2	52.2	52.2	62	39.6	2	6	248	0.00	29.996 
01:55	52.2	52.2	52.2	62	39.6	1	6	248	0.00	29.996 
02:00	52.2	52.2	52.2	62	39.6	1	5	270	0.00	29.997 
02:05	52.0	52.0	52.0	62	39.4	1	4	248	0.00	29.997 
02:10	52.0	52.0	52.0	62	39.4	1	4	248	0.00	29.997 
02:15	51.9	51.9	51.9	62	39.3	1	4	248	0.00	29.995 
02:20	51.9	51.9	51.9	63	39.7	1	4	248	0.00	29.995 
02:25	51.7	51.7	51.7	62	39.1	1	4	248	0.00	29.995 
02:30	51.7	51.7	51.7	62	39.1	2	6	248	0.00	29.984 
02:35	51.6	51.6	51.6	62	39.0	1	4	248	0.00	29.984 
02:40	51.6	51.6	51.6	62	39.0	1	4	248	0.00	29.984 
02:45	51.6	51.6	51.6	62	39.0	2	5	270	0.00	29.986 
02:50	51.7	51.7	51.7	62	39.1	1	4	248	0.00	29.986 
02:55	51.6	51.6	51.6	62	39.0	1	4	248	0.00	29.986 
03:00	51.4	51.4	51.4	62	38.8	1	6	270	0.00	29.980 
03:05	51.4	51.4	51.4	62	38.8	1	4	270	0.00	29.980 
03:10	51.4	51.4	51.4	62	38.8	2	5	248	0.00	29.980 
03:15	51.4	51.4	51.4	62	38.8	2	5	248	0.00	29.979 
03:20	51.4	51.4	51.4	62	38.8	2	6	248	0.00	29.979 
03:25	51.4	51.4	51.4	62	38.8	1	4	248	0.00	29.979 
03:30	51.3	51.3	51.3	62	38.7	1	7	248	0.00	29.971 
03:35	51.1	51.1	51.1	62	38.5	1	5	248	0.00	29.971 
03:40	51.1	51.1	51.1	62	38.5	1	4	248	0.00	29.971 
03:45	51.1	51.1	51.1	62	38.5	1	4	248	0.00	29.968 
03:50	51.1	51.1	51.1	62	38.5	1	4	248	0.00	29.968 
03:55	51.1	51.1	51.1	61	38.1	1	5	248	0.00	29.968 
04:00	51.1	51.1	51.1	61	38.1	1	4	248	0.00	29.961 
04:05	51.1	51.1	51.1	61	38.1	2	4	248	0.00	29.961 
04:10	51.1	51.1	51.1	61	38.1	2	4	248	0.00	29.961 
04:15	51.1	51.1	51.1	61	38.1	1	5	248	0.00	29.954 
04:20	51.3	51.3	51.3	60	37.9	2	4	248	0.00	29.954 
04:25	51.3	51.3	51.3	60	37.9	1	4	248	0.00	29.954 
04:30	51.1	51.1	51.1	60	37.7	1	5	248	0.00	29.943 
04:35	51.3	51.3	51.3	60	37.9	1	4	248	0.00	29.943 
04:40	51.3	51.3	51.3	60	37.9	1	3	248	0.00	29.943 
04:45	51.4	51.4	51.4	59	37.6	1	5	248	0.00	29.939 
04:50	51.6	51.6	51.6	59	37.7	1	4	248	0.00	29.939 
04:55	51.7	51.7	51.7	58	37.4	2	5	248	0.00	29.939 
05:00	51.9	51.9	51.9	58	37.6	1	6	248	0.00	29.935 
05:05	51.7	51.7	51.7	58	37.4	1	5	270	0.00	29.935 
05:10	51.9	51.9	51.9	58	37.6	1	6	248	0.00	29.935 
05:15	52.0	52.0	52.0	58	37.7	1	4	248	0.00	29.935 
05:20	52.2	52.2	52.2	57	37.4	1	4	248	0.00	29.935 
05:25	52.2	52.2	52.2	57	37.4	2	5	248	0.00	29.935 
05:30	52.2	52.2	52.2	57	37.4	2	5	248	0.00	29.930 
05:35	52.3	52.3	52.3	57	37.5	2	4	248	0.00	29.930 
05:40	52.2	52.2	52.2	57	37.4	2	6	248	0.00	29.930 
05:45	52.2	52.2	52.2	57	37.4	1	7	270	0.00	29.926 
05:50	51.9	51.9	51.9	57	37.1	2	4	270	0.00	29.926 
05:55	51.7	51.7	51.7	58	37.4	1	4	270	0.00	29.926 
06:00	51.7	51.7	51.7	57	37.0	2	4	270	0.00	29.928 
06:05	51.7	51.7	51.7	57	37.0	1	4	248	0.00	29.928 
06:10	51.6	51.6	51.6	57	36.9	1	3	248	0.00	29.928 
06:15	51.6	51.6	51.6	57	36.9	1	3	248	0.00	29.937 
06:20	51.4	51.4	51.4	58	37.1	1	3	248	0.00	29.937 
06:25	51.3	51.3	51.3	58	37.0	1	4	248	0.00	29.937 
06:30	51.1	51.1	51.1	58	36.8	1	4	248	0.00	29.942 
06:35	51.0	51.0	51.0	58	36.7	1	3	248	0.00	29.942 
06:40	50.8	50.8	50.8	58	36.6	1	3	248	0.00	29.942 
06:45	50.7	50.7	50.7	59	36.9	1	3	248	0.00	29.942 
06:50	50.7	50.7	50.7	59	36.9	1	3	248	0.00	29.942 
06:55	50.5	50.5	50.5	59	36.7	1	3	248	0.00	29.942 
07:00	50.2	50.2	50.2	59	36.4	1	3	248	0.00	29.941 
07:05	50.2	50.2	50.2	59	36.4	1	2	248	0.00	29.941 
07:10	50.1	50.1	50.1	60	36.8	1	3	248	0.00	29.941 
07:15	50.1	50.1	50.1	59	36.3	1	3	248	0.00	29.944 
07:20	49.9	49.9	49.9	60	36.6	1	2	270	0.00	29.944 
07:25	49.8	49.8	49.8	60	36.5	1	2	270	0.00	29.944 
07:30	49.6	49.6	49.6	60	36.3	1	3	270	0.00	29.944 
07:35	49.6	49.6	49.6	60	36.3	1	3	270	0.00	29.944 
07:40	49.5	49.5	49.5	60	36.2	1	2	270	0.00	29.944 
07:45	49.5	49.5	49.5	60	36.2	1	3	270	0.00	29.951 
07:50	49.4	49.4	49.4	61	36.5	1	3	270	0.00	29.951 
07:55	49.4	49.4	49.4	61	36.5	1	3	270	0.00	29.951 
08:00	49.4	49.4	49.4	61	36.5	1	3	270	0.00	29.959 
08:05	49.2	49.2	49.2	61	36.3	1	2	270	0.00	29.959 
08:10	49.2	49.2	49.2	61	36.3	1	2	270	0.00	29.959 
08:15	49.2	49.2	49.2	61	36.3	1	2	270	0.00	29.961 
08:20	49.2	49.2	49.2	61	36.3	0	3	270	0.00	29.961 
08:25	49.2	49.2	49.2	61	36.3	1	3	270	0.00	29.961 
08:30	49.2	49.2	49.2	61	36.3	0	2	270	0.00	29.958 
08:35	49.2	49.2	49.2	61	36.3	0	2	270	0.00	29.958 
08:40	49.4	49.4	49.4	61	36.5	1	2	270	0.00	29.958 
08:45	49.5	49.5	49.5	61	36.6	1	5	270	0.00	29.961 
08:50	49.6	49.6	49.6	61	36.7	1	4	270	0.00	29.961 
08:55	49.8	49.8	49.8	60	36.5	1	3	270	0.00	29.961 
09:00	50.1	50.1	50.1	60	36.8	1	3	270	0.00	29.954 
09:05	50.2	50.2	50.2	60	36.9	1	3	270	0.00	29.954 
09:10	50.4	50.4	50.4	60	37.0	1	4	248	0.00	29.954 
09:15	50.8	50.8	50.8	59	37.0	1	3	248	0.00	29.955 
09:20	51.0	51.0	51.0	59	37.2	1	3	248	0.00	29.955 
09:25	51.1	51.1	51.1	59	37.3	1	4	248	0.00	29.955 
09:30	51.3	51.3	51.3	58	37.0	2	4	248	0.00	29.958 
09:35	51.4	51.4	51.4	58	37.1	2	4	292	0.00	29.958 
09:40	51.6	51.6	51.6	58	37.3	1	4	292	0.00	29.958 
09:45	51.6	51.6	51.6	57	36.9	2	5	270	0.00	29.963 
09:50	51.6	51.6	51.6	58	37.3	1	5	270	0.00	29.963 
09:55	51.7	51.7	51.7	58	37.4	2	4	270	0.00	29.963 
10:00	51.9	51.9	51.9	58	37.6	2	5	270	0.00	29.963 
10:05	52.0	52.0	52.0	58	37.7	2	4	292	0.00	29.963 
10:10	52.2	52.2	52.2	58	37.9	1	3	292	0.00	29.963 
10:15	52.2	52.2	52.2	58	37.9	2	4	248	0.00	29.970 
10:20	52.5	52.5	52.5	58	38.2	1	3	248	0.00	29.970 
10:25	52.9	52.9	52.9	58	38.5	1	3	248	0.00	29.970 
10:30	53.3	53.3	53.3	57	38.5	2	5	248	0.00	29.974 
10:35	53.5	53.5	53.5	57	38.6	1	4	292	0.00	29.974 
10:40	53.8	53.8	53.8	56	38.5	2	4	270	0.00	29.974 
10:45	53.8	53.8	53.8	56	38.5	2	4	270	0.00	29.981 
10:50	53.8	53.8	53.8	56	38.5	1	4	270	0.00	29.981 
10:55	53.9	53.9	53.9	56	38.6	1	2	270	0.00	29.981 
11:00	53.9	53.9	53.9	57	39.0	1	2	270	0.00	29.984 
11:05	53.9	53.9	53.9	57	39.0	1	2	270	0.00	29.984 
11:10	53.9	53.9	53.9	57	39.0	1	3	270	0.00	29.984 
11:15	53.9	53.9	53.9	57	39.0	0	2	270	0.00	29.975 
11:20	54.1	54.1	54.1	58	39.7	1	2	270	0.00	29.975 
11:25	54.4	54.4	54.4	57	39.5	0	2	270	0.00	29.975 
11:30	55.0	55.0	55.0	58	40.5	1	2	270	0.00	29.970 
11:35	55.9	55.9	55.9	56	40.4	1	3	270	0.00	29.970 
11:40	56.5	56.5	56.5	55	40.5	1	3	270	0.00	29.970 
11:45	57.2	57.2	57.2	53	40.2	1	3	270	0.00	29.966 
11:50	57.6	57.6	57.6	51	39.6	1	3	270	0.00	29.966 
11:55	58.1	58.1	58.1	52	40.6	1	3	270	0.00	29.966 
12:00	58.6	58.6	58.6	51	40.5	1	4	270	0.00	29.965 
12:05	59.2	59.2	59.2	51	41.1	1	3	270	0.00	29.965 
12:10	59.6	59.6	59.6	50	40.9	2	4	270	0.00	29.965 
12:15	59.9	59.9	59.9	50	41.2	2	4	270	0.00	29.952 
12:20	60.5	60.5	60.5	48	40.7	2	4	270	0.00	29.952 
12:25	60.5	60.5	60.5	48	40.7	1	4	270	0.00	29.952 
12:30	60.5	60.5	60.5	48	40.7	1	2	270	0.00	29.942 
12:35	60.9	60.9	60.9	49	41.6	1	3	270	0.00	29.942 
12:40	61.5	61.5	61.5	49	42.2	1	3	270	0.00	29.942 
12:45	62.0	62.0	62.0	46	41.0	1	3	270	0.00	29.939 
12:50	62.3	62.3	62.3	47	41.8	1	3	270	0.00	29.939 
12:55	62.9	62.9	62.9	46	41.8	1	4	270	0.00	29.939 
13:00	63.1	63.1	63.1	45	41.4	1	4	270	0.00	29.930 
13:05	63.4	63.4	63.4	45	41.7	1	2	270	0.00	29.930 
13:10	63.2	63.2	63.2	46	42.1	1	5	270	0.00	29.930 
13:15	63.2	63.2	63.2	46	42.1	1	3	270	0.00	29.917 
13:20	63.5	63.5	63.5	45	41.8	1	3	270	0.00	29.917 
13:25	63.7	63.7	63.7	46	42.5	0	2	270	0.00	29.917 
13:30	64.3	64.3	64.3	45	42.5	1	3	270	0.00	29.919 
13:35	64.5	64.5	64.5	45	42.7	1	4	270	0.00	29.919 
13:40	64.7	64.7	64.7	44	42.3	1	3	270	0.00	29.919 
13:45	64.8	64.8	64.8	44	42.4	1	3	270	0.00	29.913 
13:50	65.0	65.0	65.0	45	43.1	1	3	270	0.00	29.913 
13:55	65.2	65.2	65.2	43	42.1	1	2	270	0.00	29.913 
14:00	65.5	65.5	65.5	43	42.4	1	4	270	0.00	29.911 
14:05	65.3	65.3	65.3	43	42.2	1	3	270	0.00	29.911 
14:10	65.2	65.2	65.2	43	42.1	1	4	270	0.00	29.911 
14:15	65.0	65.0	65.0	43	42.0	1	3	270	0.00	29.907 
14:20	64.7	64.7	64.7	43	41.7	1	4	270	0.00	29.907 
14:25	64.5	64.5	64.5	44	42.1	1	3	270	0.00	29.907 
14:30	64.3	64.3	64.3	44	41.9	1	3	270	0.00	29.898 
14:35	64.3	64.3	64.3	45	42.5	0	1	270	0.00	29.898 
14:40	64.3	64.3	64.3	46	43.1	1	3	270	0.00	29.898 
14:45	64.0	64.0	64.0	45	42.2	1	6	270	0.00	29.889 
14:50	63.7	63.7	63.7	45	42.0	1	3	270	0.00	29.889 
14:55	63.5	63.5	63.5	45	41.8	0	2	270	0.00	29.889 
15:00	63.7	63.7	63.7	45	42.0	1	3	270	0.00	29.882 
15:05	63.9	63.9	63.9	46	42.7	1	3	270	0.00	29.882 
15:10	64.0	64.0	64.0	46	42.8	1	3	270	0.00	29.882 
15:15	64.2	64.2	64.2	46	43.0	0	3	270	0.00	29.869 
15:20	64.3	64.3	64.3	48	44.2	1	3	270	0.00	29.869 
15:25	64.2	64.2	64.2	50	45.2	1	5	112	0.00	29.869 
15:30	63.9	63.9	63.9	50	44.9	1	3	112	0.00	29.868 
15:35	64.0	64.0	64.0	48	43.9	0	3	270	0.00	29.868 
15:40	64.0	64.0	64.0	48	43.9	1	3	270	0.00	29.868 
15:45	63.9	63.9	63.9	48	43.8	1	3	270	0.00	29.862 
15:50	63.4	63.4	63.4	48	43.4	1	3	270	0.00	29.862 
15:55	63.2	63.2	63.2	49	43.7	0	3	270	0.00	29.862 
16:00	62.9	62.9	62.9	49	43.4	1	4	248	0.00	29.854 
16:05	62.9	62.9	62.9	50	44.0	1	4	248	0.00	29.854 
16:10	62.9	62.9	62.9	51	44.5	1	4	270	0.00	29.854 
16:15	62.7	62.7	62.7	50	43.8	2	5	248	0.00	29.852 
16:20	62.6	62.6	62.6	50	43.7	2	5	248	0.00	29.852 
16:25	62.7	62.7	62.7	50	43.8	1	5	225	0.00	29.852 
16:30	63.1	63.1	63.1	49	43.6	2	5	248	0.00	29.850 
16:35	63.5	63.5	63.5	48	43.5	2	9	248	0.00	29.850 
16:40	63.9	63.9	63.9	48	43.8	1	4	248	0.00	29.850 
16:45	64.2	64.2	64.2	48	44.1	1	4	270	0.00	29.836 
16:50	64.8	64.8	64.8	48	44.6	1	4	68	0.00	29.836 
16:55	65.0	65.0	65.0	46	43.7	2	6	248	0.00	29.836 
17:00	65.3	65.3	65.3	48	45.1	2	7	248	0.00	29.835 
17:05	65.5	65.5	65.5	48	45.3	2	6	270	0.00	29.835 
17:10	65.5	65.5	65.5	49	45.8	3	7	248	0.00	29.835 
17:15	65.5	65.5	65.5	49	45.8	2	6	248	0.00	29.835 
17:20	65.5	65.5	65.5	50	46.4	2	6	248	0.00	29.835 
17:25	65.8	65.8	65.8	50	46.6	1	4	248	0.00	29.835 
17:30	66.3	66.3	66.3	50	47.1	2	5	248	0.00	29.835 
17:35	66.4	66.4	66.4	49	46.7	2	5	248	0.00	29.835 
17:40	66.6	66.6	66.6	49	46.8	2	6	248	0.00	29.835 
17:45	66.6	66.6	66.6	50	47.4	2	6	248	0.00	29.833 
17:50	66.6	66.6	66.6	49	46.8	2	4	248	0.00	29.833 
17:55	66.6	66.6	66.6	50	47.4	1	5	248	0.00	29.833 
18:00	66.6	66.6	66.6	50	47.4	2	5	248	0.00	29.826 
18:05	66.6	66.6	66.6	50	47.4	0	2	248	0.00	29.826 
18:10	66.8	66.8	66.8	50	47.6	1	2	248	0.00	29.826 
18:15	66.9	66.9	66.9	50	47.6	1	3	248	0.00	29.818 
18:20	67.3	67.3	67.3	49	47.5	2	5	248	0.00	29.818 
18:25	67.6	67.6	67.6	48	47.2	2	6	248	0.00	29.818 
18:30	67.6	67.6	67.6	47	46.6	2	6	248	0.00	29.810 
18:35	67.6	67.6	67.6	48	47.2	1	3	225	0.00	29.810 
18:40	67.4	67.4	67.4	47	46.5	2	5	248	0.00	29.810 
18:45	67.4	67.4	67.4	47	46.5	1	5	248	0.00	29.804 
18:50	67.3	67.3	67.3	46	45.8	1	3	248	0.00	29.804 
18:55	67.1	67.1	67.1	47	46.2	1	4	248	0.00	29.804 
19:00	66.8	66.8	66.8	46	45.3	1	3	248	0.00	29.795 
19:05	66.6	66.6	66.6	46	45.2	0	5	248	0.00	29.795 
19:10	66.4	66.4	66.4	47	45.5	0	2	270	0.00	29.795 
19:15	66.3	66.3	66.3	47	45.5	1	3	270	0.00	29.775 
19:20	66.0	66.0	66.0	49	46.3	0	2	270	0.00	29.775 
19:25	65.6	65.6	65.6	50	46.5	1	3	270	0.00	29.775 
19:30	65.3	65.3	65.3	51	46.7	1	4	270	0.00	29.769 
19:35	65.2	65.2	65.2	52	47.1	1	5	248	0.00	29.769 
19:40	64.8	64.8	64.8	53	47.3	1	3	248	0.00	29.769 
19:45	64.5	64.5	64.5	54	47.5	1	4	248	0.00	29.756 
19:50	64.3	64.3	64.3	54	47.3	1	4	248	0.00	29.756 
19:55	64.0	64.0	64.0	55	47.5	1	2	248	0.00	29.756 
20:00	63.7	63.7	63.7	55	47.2	1	3	248	0.00	29.744 
20:05	63.4	63.4	63.4	56	47.4	0	2	248	0.00	29.744 
20:10	63.1	63.1	63.1	58	48.1	1	3	248	0.00	29.744 
20:15	62.9	62.9	62.9	58	47.9	1	5	248	0.00	29.739 
20:20	62.9	62.9	62.9	59	48.3	1	4	248	0.00	29.739 
20:25	63.1	63.1	63.1	59	48.5	1	3	248	0.00	29.739 
20:30	63.1	63.1	63.1	59	48.5	2	6	248	0.00	29.743 
20:35	63.1	63.1	63.1	59	48.5	1	4	248	0.00	29.743 
20:40	63.2	63.2	63.2	58	48.2	1	6	248	0.00	29.743 
20:45	63.2	63.2	63.2	58	48.2	2	6	248	0.00	29.748 
20:50	63.2	63.2	63.2	58	48.2	2	7	248	0.00	29.748 
20:55	63.1	63.1	63.1	59	48.5	2	6	248	0.00	29.748 
21:00	63.1	63.1	63.1	59	48.5	1	5	248	0.00	29.758 
21:05	62.9	62.9	62.9	59	48.3	2	4	248	0.00	29.758 
21:10	62.7	62.7	62.7	58	47.7	1	5	248	0.00	29.758 
21:15	62.9	62.9	62.9	58	47.9	2	6	248	0.00	29.760 
21:20	62.7	62.7	62.7	58	47.7	2	5	248	0.00	29.760 
21:25	62.7	62.7	62.7	58	47.7	2	5	248	0.00	29.760 
21:30	62.7	62.7	62.7	58	47.7	2	5	248	0.00	29.763 
21:35	62.6	62.6	62.6	58	47.6	1	5	248	0.00	29.763 
21:40	62.6	62.6	62.6	58	47.6	1	3	248	0.00	29.763 
21:45	62.4	62.4	62.4	59	47.9	2	6	248	0.00	29.776 
21:50	62.4	62.4	62.4	59	47.9	2	7	248	0.00	29.776 
21:55	62.4	62.4	62.4	59	47.9	1	4	248	0.00	29.776 
22:00	62.3	62.3	62.3	59	47.8	2	4	248	0.00	29.780 
22:05	62.3	62.3	62.3	59	47.8	1	4	248	0.00	29.780 
22:10	62.3	62.3	62.3	59	47.8	1	5	270	0.00	29.780 
22:15	62.3	62.3	62.3	59	47.8	2	6	248	0.00	29.773 
22:20	62.4	62.4	62.4	59	47.9	1	4	270	0.00	29.773 
22:25	62.3	62.3	62.3	59	47.8	1	4	248	0.00	29.773 
22:30	62.3	62.3	62.3	59	47.8	1	6	248	0.00	29.773 
22:35	62.0	62.0	62.0	59	47.5	1	4	248	0.00	29.773 
22:40	62.0	62.0	62.0	59	47.5	2	4	270	0.00	29.773 
22:45	62.0	62.0	62.0	59	47.5	1	3	270	0.00	29.772 
22:50	61.8	61.8	61.8	60	47.8	2	4	248	0.00	29.772 
22:55	61.6	61.6	61.6	60	47.6	1	4	248	0.00	29.772 
23:00	61.8	61.8	61.8	60	47.8	1	5	248	0.00	29.769 
23:05	61.8	61.8	61.8	60	47.8	2	7	248	0.00	29.769 
23:10	61.8	61.8	61.8	60	47.8	2	7	248	0.00	29.769 
23:15	61.6	61.6	61.6	61	48.0	1	5	248	0.00	29.756 
23:20	61.6	61.6	61.6	61	48.0	2	7	248	0.00	29.756 
23:25	61.8	61.8	61.8	61	48.2	1	4	248	0.00	29.756 
23:30	61.6	61.6	61.6	61	48.0	2	5	248	0.00	29.754 
23:35	61.5	61.5	61.5	62	48.4	1	4	248	0.00	29.754 
23:40	61.3	61.3	61.3	62	48.2	1	4	248	0.00	29.754 
23:45	61.0	61.0	61.0	62	47.9	1	5	248	0.00	29.755 
23:50	60.9	60.9	60.9	62	47.8	1	4	248	0.00	29.755 
23:55	60.7	60.7	60.7	63	48.0	1	4	248	0.00	29.755 

CoCoRaHS
IN-AL-39
A2 Web Hosting
Creative Commons License
GoDaddy
search engine by freefind advanced

loaded 2018-11-16 23:38:39 • last modified 2010-11-18 10:43:29
Privacy PolicyDisclaimer
• wx.awcolley.com is powered by PmWiki v.2002016 •
• all content (unless otherwise noted) © 2018 A W Colley